createdAt,value
2018-07-07T03:42:01.583Z,5.63
2018-07-07T03:44:49.530Z,4.73
2018-07-07T03:47:39.230Z,4.67
2018-07-07T03:50:27.204Z,4.30
2018-07-07T03:53:15.383Z,4.17
2018-07-07T03:56:03.593Z,4.83
2018-07-07T03:58:51.063Z,5.17
2018-07-07T04:01:39.631Z,4.93
2018-07-07T04:04:53.218Z,5.10
2018-07-07T04:07:40.775Z,4.33
2018-07-07T04:10:27.775Z,4.33
2018-07-07T04:13:14.729Z,4.83
2018-07-07T04:19:01.504Z,4.17
2018-07-07T04:21:47.693Z,4.10
2018-07-07T04:24:36.418Z,4.40
2018-07-07T04:27:22.533Z,3.80
2018-07-07T04:30:09.011Z,4.27
2018-07-07T04:32:57.222Z,4.37
2018-07-07T04:35:43.888Z,4.53
2018-07-07T04:38:31.494Z,4.70
2018-07-07T04:44:27.857Z,4.67
2018-07-07T04:47:15.618Z,4.83
2018-07-07T04:50:03.083Z,4.57
2018-07-07T04:52:48.926Z,4.03
2018-07-07T04:55:36.297Z,4.03
2018-07-07T04:58:24.911Z,3.80
2018-07-07T05:01:12.495Z,4.30
2018-07-07T05:03:59.018Z,4.10
2018-07-07T05:06:45.372Z,4.60
2018-07-07T05:09:33.378Z,4.50
2018-07-07T05:12:20.334Z,4.23
2018-07-07T05:15:08.905Z,4.10
2018-07-07T05:17:58.139Z,4.07
2018-07-07T05:20:48.306Z,4.23
2018-07-07T05:23:36.292Z,3.80
2018-07-07T05:26:23.281Z,3.83
2018-07-07T05:29:10.064Z,4.10
2018-07-07T05:32:05.137Z,4.23
2018-07-07T05:34:52.454Z,3.87
2018-07-07T05:37:38.964Z,4.37
2018-07-07T05:40:28.101Z,4.10
2018-07-07T05:43:15.170Z,5.37
2018-07-07T05:46:02.882Z,4.37
2018-07-07T05:48:51.131Z,4.03
2018-07-07T05:51:39.062Z,4.33
2018-07-07T05:54:27.223Z,4.63
2018-07-07T05:57:14.626Z,4.63
2018-07-07T06:00:02.740Z,10.78
2018-07-07T06:03:24.024Z,5.03
2018-07-07T06:06:37.531Z,4.13
2018-07-07T06:09:41.760Z,4.80
2018-07-07T06:12:30.959Z,4.33
2018-07-07T06:15:18.375Z,5.40
2018-07-07T06:18:04.511Z,4.30
2018-07-07T06:20:51.529Z,4.20
2018-07-07T06:23:39.178Z,4.53
2018-07-07T06:26:25.925Z,3.87
2018-07-07T06:29:13.902Z,4.37
2018-07-07T06:32:01.008Z,4.50
2018-07-07T06:34:47.362Z,4.40
2018-07-07T06:37:35.331Z,4.43
2018-07-07T06:40:23.929Z,4.13
2018-07-07T06:43:11.027Z,4.60
2018-07-07T06:45:57.952Z,4.37
2018-07-07T06:48:46.988Z,5.40
2018-07-07T06:51:35.868Z,4.10
2018-07-07T06:54:24.716Z,4.20
2018-07-07T06:57:13.583Z,4.40
2018-07-07T06:59:59.231Z,4.10
2018-07-07T07:02:46.641Z,4.37
2018-07-07T07:05:35.351Z,4.50
2018-07-07T07:08:24.649Z,4.57
2018-07-07T07:11:10.299Z,4.40
2018-07-07T07:13:58.640Z,3.87
2018-07-07T07:16:45.975Z,4.30
2018-07-07T07:19:35.043Z,4.17
2018-07-07T07:22:22.427Z,3.92
2018-07-07T07:25:09.097Z,3.80
2018-07-07T07:27:57.099Z,4.27
2018-07-07T07:30:43.762Z,3.70
2018-07-07T07:33:31.787Z,4.62
2018-07-07T07:36:20.023Z,4.30
2018-07-07T07:39:07.536Z,3.87
2018-07-07T07:41:54.603Z,3.90
2018-07-07T07:44:41.972Z,3.77
2018-07-07T07:47:30.696Z,4.00
2018-07-07T07:50:17.411Z,3.87
2018-07-07T07:53:03.733Z,3.40
2018-07-07T07:55:52.181Z,3.70
2018-07-07T07:58:39.707Z,3.52
2018-07-07T08:01:31.059Z,3.67
2018-07-07T08:04:21.771Z,3.12
2018-07-07T08:07:07.085Z,3.40
2018-07-07T08:10:05.248Z,3.35
2018-07-07T08:12:50.962Z,3.00
2018-07-07T08:15:38.003Z,2.80
2018-07-07T08:18:24.527Z,2.90
2018-07-07T08:21:33.424Z,3.90
2018-07-07T08:24:20.129Z,3.33
2018-07-07T08:27:06.529Z,3.00
2018-07-07T08:29:52.342Z,3.63
2018-07-07T08:32:39.064Z,3.90
2018-07-07T08:35:25.052Z,3.83
2018-07-07T08:38:17.455Z,3.97
2018-07-07T08:41:03.529Z,4.17
2018-07-07T08:43:49.890Z,3.87
2018-07-07T08:46:37.386Z,3.57
2018-07-07T08:49:24.257Z,3.80
2018-07-07T08:52:10.511Z,3.80
2018-07-07T08:54:56.011Z,3.80
2018-07-07T08:57:41.382Z,3.97
2018-07-07T09:00:28.106Z,3.93
2018-07-07T09:03:14.085Z,2.83
2018-07-07T09:06:00.488Z,3.00
2018-07-07T09:08:46.729Z,2.30
2018-07-07T09:11:32.299Z,3.03
2018-07-07T09:18:17.923Z,2.63
2018-07-07T09:21:05.327Z,3.55
2018-07-07T09:27:13.849Z,2.90
2018-07-07T09:30:00.685Z,3.10
2018-07-07T09:32:47.852Z,2.87
2018-07-07T09:35:34.730Z,3.00
2018-07-07T09:38:23.008Z,3.23
2018-07-07T09:41:10.020Z,3.10
2018-07-07T09:46:55.374Z,3.53
2018-07-07T09:49:50.375Z,3.60
2018-07-07T09:52:38.001Z,3.77
2018-07-07T10:02:09.136Z,4.10
2018-07-07T10:11:34.244Z,4.40
2018-07-07T10:14:20.411Z,4.20
2018-07-07T10:17:10.775Z,4.10
2018-07-07T10:20:00.413Z,3.93
2018-07-07T10:26:32.774Z,5.80
2018-07-07T10:29:19.863Z,8.23
2018-07-07T10:32:07.646Z,5.17
2018-07-07T10:34:54.478Z,7.13
2018-07-07T10:37:45.292Z,6.10
2018-07-07T10:40:32.183Z,5.90
2018-07-07T10:43:30.182Z,5.50
2018-07-07T10:46:18.524Z,5.37
2018-07-07T10:49:10.042Z,4.70
2018-07-07T10:51:57.209Z,5.30
2018-07-07T10:54:43.684Z,4.97
2018-07-07T10:57:29.774Z,5.23
2018-07-07T11:00:16.894Z,5.20
2018-07-07T11:03:02.839Z,4.70
2018-07-07T11:05:48.800Z,4.93
2018-07-07T11:08:35.611Z,5.03
2018-07-07T11:11:23.809Z,4.90
2018-07-07T11:14:11.367Z,4.73
2018-07-07T11:16:57.291Z,4.80
2018-07-07T11:19:45.887Z,4.70
2018-07-07T11:22:32.916Z,4.60
2018-07-07T11:25:20.971Z,5.30
2018-07-07T11:28:07.369Z,5.00
2018-07-07T11:30:54.045Z,5.13
2018-07-07T11:33:41.388Z,5.23
2018-07-07T11:36:29.241Z,8.03
2018-07-07T11:39:16.764Z,15.73
2018-07-07T11:42:03.781Z,7.23
2018-07-07T11:44:49.976Z,7.10
2018-07-07T11:47:40.009Z,5.47
2018-07-07T11:50:26.812Z,5.50
2018-07-07T11:53:14.696Z,5.37
2018-07-07T11:56:02.845Z,5.40
2018-07-07T11:58:48.601Z,5.33
2018-07-07T12:01:35.957Z,5.47
2018-07-07T12:04:22.497Z,5.40
2018-07-07T12:07:10.559Z,5.40
2018-07-07T12:09:57.859Z,5.77
2018-07-07T12:12:45.104Z,6.10
2018-07-07T12:15:31.383Z,6.20
2018-07-07T12:18:19.488Z,6.40
2018-07-07T12:21:07.226Z,6.07
2018-07-07T12:23:53.335Z,6.10
2018-07-07T12:26:40.972Z,6.17
2018-07-07T12:29:29.180Z,4.97
2018-07-07T12:32:15.616Z,4.50
2018-07-07T12:35:01.977Z,3.73
2018-07-07T12:38:00.575Z,3.80
2018-07-07T12:40:47.319Z,4.93
2018-07-07T12:43:33.732Z,4.00
2018-07-07T12:46:20.987Z,3.50
2018-07-07T12:49:09.468Z,3.90
2018-07-07T12:51:57.385Z,3.80
2018-07-07T12:54:49.414Z,3.80
2018-07-07T12:57:37.614Z,3.93
2018-07-07T13:00:24.062Z,3.50
2018-07-07T13:03:28.592Z,3.23
2018-07-07T13:06:18.178Z,3.60
2018-07-07T13:09:05.693Z,3.67
2018-07-07T13:11:53.712Z,3.60
2018-07-07T13:14:42.206Z,4.00
2018-07-07T13:17:29.055Z,4.03
2018-07-07T13:20:15.624Z,3.53
2018-07-07T13:23:03.167Z,4.00
2018-07-07T13:25:50.097Z,4.30
2018-07-07T13:28:39.324Z,4.13
2018-07-07T13:31:26.093Z,4.53
2018-07-07T13:34:11.735Z,4.57
2018-07-07T13:36:59.136Z,4.80
2018-07-07T13:39:46.804Z,5.27
2018-07-07T13:42:35.064Z,5.47
2018-07-07T13:45:21.261Z,5.50
2018-07-07T13:48:08.446Z,5.20
2018-07-07T13:50:56.614Z,4.60
2018-07-07T13:53:45.252Z,5.17
2018-07-07T13:56:32.702Z,5.03
2018-07-07T13:59:19.329Z,5.20
2018-07-07T14:02:05.842Z,4.83
2018-07-07T14:07:42.583Z,4.33
2018-07-07T14:10:29.453Z,4.40
2018-07-07T14:13:17.466Z,4.10
2018-07-07T14:16:04.747Z,4.50
2018-07-07T14:18:53.732Z,4.37
2018-07-07T14:21:41.375Z,4.37
2018-07-07T14:24:29.444Z,4.10
2018-07-07T14:27:15.022Z,4.20
2018-07-07T14:30:02.207Z,4.60
2018-07-07T14:32:50.705Z,4.33
2018-07-07T14:35:38.778Z,4.83
2018-07-07T14:38:30.351Z,5.30
2018-07-07T14:42:23.107Z,5.10
2018-07-07T14:45:13.725Z,4.30
2018-07-07T14:48:02.745Z,3.90
2018-07-07T14:50:49.883Z,3.80
2018-07-07T14:53:36.932Z,3.17
2018-07-07T14:56:25.243Z,3.60
2018-07-07T14:59:12.790Z,3.33
2018-07-07T15:02:00.171Z,3.57
2018-07-07T15:04:48.918Z,3.37
2018-07-07T15:07:40.643Z,3.20
2018-07-07T15:10:37.071Z,3.47
2018-07-07T15:13:25.308Z,4.10
2018-07-07T15:16:12.769Z,4.17
2018-07-07T15:19:01.526Z,3.73
2018-07-07T15:21:48.987Z,4.67
2018-07-07T15:24:36.083Z,4.10
2018-07-07T15:27:23.239Z,4.00
2018-07-07T15:30:11.418Z,3.70
2018-07-07T15:32:57.414Z,5.00
2018-07-07T15:35:43.909Z,4.83
2018-07-07T15:38:30.265Z,4.53
2018-07-07T15:41:46.470Z,5.23
2018-07-07T15:44:35.675Z,5.10
2018-07-07T15:47:22.494Z,5.13
2018-07-07T15:50:08.967Z,5.57
2018-07-07T15:52:55.620Z,4.77
2018-07-07T15:55:44.270Z,5.07
2018-07-07T15:58:36.547Z,4.57
2018-07-07T16:01:23.820Z,5.53
2018-07-07T16:04:11.383Z,5.30
2018-07-07T16:06:57.953Z,5.27
2018-07-07T16:19:23.372Z,5.00
2018-07-07T16:22:10.532Z,4.40
2018-07-07T16:24:56.259Z,4.80
2018-07-07T16:27:42.652Z,5.33
2018-07-07T16:30:58.182Z,5.00
2018-07-07T16:33:44.269Z,4.57
2018-07-07T16:36:30.986Z,5.40
2018-07-07T16:39:19.574Z,5.10
2018-07-07T16:42:06.212Z,5.20
2018-07-07T16:44:54.371Z,5.90
2018-07-07T16:47:40.934Z,6.13
2018-07-07T16:50:29.703Z,6.30
2018-07-07T16:53:17.493Z,6.00
2018-07-07T16:56:03.799Z,5.53
2018-07-07T16:58:49.307Z,5.30
2018-07-07T17:01:37.423Z,5.10
2018-07-07T17:04:23.745Z,5.60
2018-07-07T17:07:12.780Z,5.47
2018-07-07T17:09:59.263Z,4.90
2018-07-07T17:12:46.409Z,5.57
2018-07-07T17:15:32.845Z,5.40
2018-07-07T17:18:22.076Z,5.13
2018-07-07T17:21:23.028Z,4.67
2018-07-07T17:27:55.228Z,4.93
2018-07-07T17:34:06.430Z,5.30
2018-07-07T17:36:54.635Z,5.17
2018-07-07T17:39:40.978Z,5.37
2018-07-07T17:42:28.854Z,5.53
2018-07-07T17:45:16.965Z,4.80
2018-07-07T17:48:06.547Z,4.73
2018-07-07T17:50:54.457Z,5.33
2018-07-07T17:53:45.266Z,4.83
2018-07-07T17:56:32.147Z,5.80
2018-07-07T17:59:21.426Z,5.40
2018-07-07T18:02:11.412Z,5.53
2018-07-07T18:04:58.073Z,5.63
2018-07-07T18:07:47.108Z,5.37
2018-07-07T18:10:34.890Z,6.13
2018-07-07T18:13:22.705Z,5.80
2018-07-07T18:16:10.192Z,5.70
2018-07-07T18:18:58.031Z,5.30
2018-07-07T18:21:46.795Z,5.10
2018-07-07T18:24:34.380Z,4.97
2018-07-07T18:27:23.545Z,5.67
